Time,TemperatureF,DewpointF,PressureIn,WindDirection,WindDirectionDegrees,WindSpeedMPH,WindSpeedGustMPH,Humidity,HourlyPrecipIn,Conditions,Clouds,dailyrainin,SoftwareType,DateUTC
2013-01-11 00:12:00,23.0,14.0,-100.00,WNW,302,2.0,4.0,68,-99.99,,,-99.99,,2013-01-11 07:12:00,
2013-01-11 00:22:00,23.0,14.0,-100.00,WNW,302,2.0,4.0,68,-99.99,,,-99.99,,2013-01-11 07:22:00,
2013-01-11 01:12:00,22.0,12.0,-100.00,WNW,302,2.0,4.0,64,-99.99,,,-99.99,,2013-01-11 08:12:00,
2013-01-11 01:30:00,22.0,11.0,-100.00,NW,320,2.0,4.0,63,-99.99,,,-99.99,,2013-01-11 08:30:00,
2013-01-11 02:12:00,22.0,11.0,-100.00,NW,320,2.0,4.0,63,-99.99,,,-99.99,,2013-01-11 09:12:00,
2013-01-11 02:22:00,22.0,11.0,-100.00,NW,320,2.0,4.0,63,-99.99,,,-99.99,,2013-01-11 09:22:00,
2013-01-11 02:30:00,22.0,11.0,-100.00,NW,306,4.0,4.0,61,-99.99,,,-99.99,,2013-01-11 09:30:00,
2013-01-11 03:12:00,22.0,11.0,-100.00,NW,306,4.0,4.0,61,-99.99,,,-99.99,,2013-01-11 10:12:00,
2013-01-11 03:22:00,22.0,11.0,-100.00,NW,306,4.0,4.0,61,-99.99,,,-99.99,,2013-01-11 10:22:00,
2013-01-11 04:30:00,21.0,9.0,-100.00,NW,313,4.0,4.0,59,-99.99,,,-99.99,,2013-01-11 11:30:00,
2013-01-11 05:12:00,21.0,9.0,-100.00,NW,313,4.0,4.0,59,-99.99,,,-99.99,,2013-01-11 12:12:00,
2013-01-11 05:22:00,21.0,9.0,-100.00,NW,313,4.0,4.0,59,-99.99,,,-99.99,,2013-01-11 12:22:00,
2013-01-11 05:30:00,20.0,9.0,-100.00,NW,318,4.0,4.0,61,-99.99,,,-99.99,,2013-01-11 12:30:00,
2013-01-11 06:12:00,20.0,9.0,-100.00,NW,318,4.0,4.0,61,-99.99,,,-99.99,,2013-01-11 13:12:00,
2013-01-11 06:22:00,20.0,9.0,-100.00,NW,318,4.0,4.0,61,-99.99,,,-99.99,,2013-01-11 13:22:00,
2013-01-11 06:30:00,20.0,9.0,-100.00,NW,310,4.0,4.0,62,-99.99,,,-99.99,,2013-01-11 13:30:00,
2013-01-11 07:12:00,20.0,9.0,-100.00,NW,310,4.0,4.0,62,-99.99,,,-99.99,,2013-01-11 14:12:00,
2013-01-11 07:22:00,20.0,9.0,-100.00,NW,310,4.0,4.0,62,-99.99,,,-99.99,,2013-01-11 14:22:00,
2013-01-11 07:30:00,19.0,9.0,-100.00,NW,311,2.0,4.0,63,-99.99,,,-99.99,,2013-01-11 14:30:00,
2013-01-11 08:12:00,19.0,9.0,-100.00,NW,311,2.0,4.0,63,-99.99,,,-99.99,,2013-01-11 15:12:00,
2013-01-11 08:23:00,19.0,9.0,-100.00,NW,311,2.0,4.0,63,-99.99,,,-99.99,,2013-01-11 15:23:00,
2013-01-11 08:30:00,19.0,6.0,-100.00,NW,312,4.0,4.0,57,-99.99,,,-99.99,,2013-01-11 15:30:00,
2013-01-11 09:12:00,19.0,6.0,-100.00,NW,312,4.0,4.0,57,-99.99,,,-99.99,,2013-01-11 16:12:00,
2013-01-11 09:22:00,19.0,6.0,-100.00,NW,312,4.0,4.0,57,-99.99,,,-99.99,,2013-01-11 16:22:00,
2013-01-11 10:30:00,20.0,8.0,-100.00,NW,316,2.0,4.0,58,-99.99,,,-99.99,,2013-01-11 17:30:00,
2013-01-11 11:12:00,20.0,8.0,-100.00,NW,316,2.0,4.0,58,-99.99,,,-99.99,,2013-01-11 18:12:00,
2013-01-11 11:23:00,20.0,8.0,-100.00,NW,316,2.0,4.0,58,-99.99,,,-99.99,,2013-01-11 18:23:00,
2013-01-11 11:30:00,21.0,9.0,-100.00,NW,326,2.0,4.0,59,-99.99,,,-99.99,,2013-01-11 18:30:00,
2013-01-11 12:12:00,21.0,9.0,-100.00,NW,326,2.0,4.0,59,-99.99,,,-99.99,,2013-01-11 19:12:00,
2013-01-11 12:22:00,21.0,9.0,-100.00,NW,326,2.0,4.0,59,-99.99,,,-99.99,,2013-01-11 19:22:00,
2013-01-11 12:30:00,21.0,8.0,-100.00,North,1,2.0,2.0,57,-99.99,,,-99.99,,2013-01-11 19:30:00,
2013-01-11 13:12:00,21.0,8.0,-100.00,North,1,2.0,2.0,57,-99.99,,,-99.99,,2013-01-11 20:12:00,
2013-01-11 13:22:00,21.0,8.0,-100.00,North,1,2.0,2.0,57,-99.99,,,-99.99,,2013-01-11 20:22:00,
2013-01-11 14:30:00,22.0,6.0,-100.00,NNE,26,2.0,2.0,50,-99.99,,,-99.99,,2013-01-11 21:30:00,
2013-01-11 15:12:00,22.0,6.0,-100.00,NNE,26,2.0,2.0,50,-99.99,,,-99.99,,2013-01-11 22:12:00,
2013-01-11 15:22:00,22.0,6.0,-100.00,NNE,26,2.0,2.0,50,-99.99,,,-99.99,,2013-01-11 22:22:00,
2013-01-11 17:30:00,21.0,8.0,-100.00,ENE,68,2.0,4.0,57,-99.99,,,-99.99,,2013-01-12 00:30:00,
2013-01-11 18:12:00,21.0,8.0,-100.00,ENE,68,2.0,4.0,57,-99.99,,,-99.99,,2013-01-12 01:12:00,
2013-01-11 18:22:00,21.0,8.0,-100.00,ENE,68,2.0,4.0,57,-99.99,,,-99.99,,2013-01-12 01:22:00,
2013-01-11 18:30:00,19.0,6.0,-100.00,NW,305,0.0,2.0,57,-99.99,,,-99.99,,2013-01-12 01:30:00,
2013-01-11 19:12:00,19.0,6.0,-100.00,NW,305,0.0,2.0,57,-99.99,,,-99.99,,2013-01-12 02:12:00,
2013-01-11 19:22:00,19.0,6.0,-100.00,NW,305,0.0,2.0,57,-99.99,,,-99.99,,2013-01-12 02:22:00,
2013-01-11 19:30:00,19.0,5.0,-100.00,WNW,298,0.0,2.0,54,-99.99,,,-99.99,,2013-01-12 02:30:00,
2013-01-11 20:12:00,19.0,5.0,-100.00,WNW,298,0.0,2.0,54,-99.99,,,-99.99,,2013-01-12 03:12:00,
2013-01-11 20:22:00,19.0,5.0,-100.00,WNW,298,0.0,2.0,54,-99.99,,,-99.99,,2013-01-12 03:22:00,
2013-01-11 21:12:00,18.0,5.0,-100.00,West,268,0.0,2.0,55,-99.99,,,-99.99,,2013-01-12 04:12:00,
2013-01-11 23:12:00,17.0,5.0,-100.00,WSW,248,0.0,2.0,59,-99.99,,,-99.99,,2013-01-12 06:12:00,